Rechercher aéroport 
image banner adimage banner adimage banner ad
image banner ad

1CA3 - G S A Laguna Niguel G/L Helistop

Situé à South Laguna Beach, United States

ICAO - 1CA3, IATA -

Données fournies par Airmate  

Information générale

Coordonnées: N33°33'41" W117°42'55"
Élévation : 188 feet MSL.
Variation magnétique : 14° East
Voir autres Aéroports à California

Données opérationnelles

Special qualification required
Heure actuelle UTC:
Heure actuelle locale:
METAR: KSNA 251518Z 09005KT 10SM OVC015 22/16 A3000 RMK AO2 T02220161
TAF: KSNA 251141Z 2512/2612 VRB04KT P6SM SCT015 BKN120 TEMPO 2512/2516 BKN015 FM251900 22009KT P6SM FEW010 OVC120 FM260300 VRB05KT P6SM SCT015 OVC120 FM260800 VRB05KT P6SM VCSH BKN015 OVC100
Voir NOTAMs / SUP AIP / TFR affectant cet aéroport [VIEW]
Fréquences de communication: [VIEW]

Pistes:

Coordonnées de l'aéroport

Adresse: South Laguna Beach United States

Vue satellite de 1CA3